Meteo Giornale » Osservazioni meteo Stati Uniti (USA) » Garden City
ore: 12:54 - Osservazioni Meteo Garden City
Lat. 37° 55' N Lon. 100° 43' W Alt. 881 metri s.l.m.
34 °C
Sereno
Temp. 24 Ore
19 °C
36 °C
Ovest/Sud-Ovest
18.5 Km/h
Dew point 13 °C
Umidità 28 %
Visibilità 10 Km
Il sole sorge alle ore 07:13
Il sole tramonta alle ore 20:12
| Data e Ora | Cielo e Fenomeni | T °C | DP °C | Um. % | Pres. hPa | Vis. km | Vento km/h | |
|---|---|---|---|---|---|---|---|---|
| Oggi h: 12:54 | Sereno | 34 | 13 | 28 | 1017 | 10 | O/SO 18.5 | |
| Oggi h: 11:54 | Poco Nuvoloso | 33 | 14 | 31 | 1017 | 10 | SO 29.6 | |
| Oggi h: 10:54 | Sereno | 31 | 14 | 35 | 1017 | 10 | SO 22.2 | |
| Oggi h: 09:54 | Poco Nuvoloso | 28 | 15 | 45 | 1017 | 10 | S/SO 22.2 | |
| Oggi h: 08:54 | Poco Nuvoloso | 23 | 16 | 64 | 1017 | 10 | S/SE 14.8 | |
| Oggi h: 07:54 | Poco Nuvoloso | 19 | 16 | 82 | 1017 | 10 | S 11.1 | |
| Oggi h: 06:54 | Poco Nuvoloso | 19 | 16 | 82 | 1017 | 14 | S 13 | |
| Oggi h: 05:54 | Sereno | 19 | 16 | 82 | 1017 | 10 | S/SE 11.1 | |
| Oggi h: 04:54 | Sereno | 19 | 17 | 88 | 1017 | 10 | SO 7.4 | |
| Oggi h: 03:54 | Sereno | 22 | 17 | 73 | 1017 | 14 | S 7.4 | |
| Oggi h: 02:54 | Sereno | 22 | 17 | 73 | 1017 | 10 | S 7.4 | |
| Oggi h: 01:54 | Sereno | 22 | 16 | 68 | 1016 | 10 | S/SO 9.3 | |
| Oggi h: 00:54 | Sereno | 24 | 15 | 57 | 1016 | 10 | S 13 | |
| Ieri h: 23:54 | Sereno | 27 | 14 | 44 | 1016 | 10 | S/SE 9.3 | |
| Ieri h: 22:54 | Molto Nuvoloso | 28 | 14 | 42 | 1016 | 10 | S 14.8 | |
| Ieri h: 21:54 | Molto Nuvoloso | 27 | 16 | 50 | 1015 | 10 | N 0 | |
| Ieri h: 20:54 | Sereno | 31 | 14 | 35 | 1014 | 10 | N 0 | |
| Ieri h: 19:54 | Sereno | 33 | 14 | 31 | 1013 | 10 | S 7.4 | |
| Ieri h: 18:54 | Sereno | 36 | 14 | 26 | 1013 | 10 | S/SO 14.8 | |
| Ieri h: 17:54 | Sereno | 36 | 14 | 26 | 1014 | 10 | S/SO 18.5 | |
| Ieri h: 16:54 | Sereno | 36 | 14 | 26 | 1014 | 10 | S 13 | |
| Ieri h: 15:54 | Sereno | 36 | 16 | 30 | 1015 | 10 | N 0 | |
| Ieri h: 14:54 | Sereno | 35 | 17 | 34 | 1016 | 10 | N 9.3 | |
| Ieri h: 13:54 | Sereno | 33 | 17 | 38 | 1016 | 10 | S/SO 7.4 | |



